Time;durP1;ratioP1;P1;durP2;ratioP2;P2;SDS_P1;SDS_P2;PMS_P1;PMS_P2;Temp;Humidity;BMP_temperature;BMP_pressure;BME280_temperature;BME280_humidity;BME280_pressure;Samples;Min_cycle;Max_cycle;Signal;HPM_P1;HPM_P2
2022/09/15 00:01:01;;;;;;;7.90;4.22;;;;;;;22.14;73.90;98748.09;4452643;32;33851;-81
2022/09/15 00:03:29;;;;;;;6.40;3.75;;;;;;;22.09;74.31;98745.53;4451964;32;34080;-81
2022/09/15 00:05:56;;;;;;;5.28;3.70;;;;;;;22.18;74.16;98723.41;4452171;32;33207;-81
2022/09/15 00:08:24;;;;;;;7.45;4.15;;;;;;;21.84;77.53;98696.81;4448808;32;33819;-80
2022/09/15 00:10:55;;;;;;;8.40;4.53;;;;;;;21.16;81.87;98711.09;4452299;32;34037;-81
2022/09/15 00:13:22;;;;;;;6.72;4.70;;;;;;;20.53;86.27;98728.63;4453092;32;33613;-81
2022/09/15 00:15:50;;;;;;;8.63;5.15;;;;;;;20.06;89.68;98753.69;4451177;32;34393;-82
2022/09/15 00:18:18;;;;;;;7.78;5.37;;;;;;;20.01;90.44;98742.34;4451777;32;33124;-81
2022/09/15 00:20:45;;;;;;;8.52;5.62;;;;;;;20.10;90.42;98747.50;4449959;32;33426;-81
2022/09/15 00:23:14;;;;;;;10.82;6.00;;;;;;;20.07;91.07;98754.56;4450566;32;33808;-81
2022/09/15 00:25:47;;;;;;;8.75;5.35;;;;;;;20.14;91.06;98762.34;4450277;32;33026;-81
2022/09/15 00:28:17;;;;;;;7.75;5.60;;;;;;;19.99;92.32;98778.28;4451348;32;32563;-81
2022/09/15 00:30:48;;;;;;;9.25;5.65;;;;;;;19.68;95.02;98791.66;4449879;32;34218;-81
2022/09/15 00:33:17;;;;;;;8.55;6.00;;;;;;;19.48;96.98;98802.34;4453248;32;33829;-81
2022/09/15 00:35:46;;;;;;;9.45;6.53;;;;;;;19.66;95.88;98817.06;4449633;32;33544;-81
2022/09/15 00:38:15;;;;;;;9.80;6.15;;;;;;;19.58;96.79;98832.03;4451333;32;34542;-80
2022/09/15 00:40:47;;;;;;;8.82;6.18;;;;;;;19.75;96.26;98842.47;4450109;32;34324;-81
2022/09/15 00:43:18;;;;;;;8.77;5.80;;;;;;;19.96;94.25;98841.41;4452558;32;34111;-81
2022/09/15 00:45:47;;;;;;;8.73;5.90;;;;;;;20.03;93.43;98851.00;4452127;32;33908;-81
2022/09/15 00:48:20;;;;;;;11.02;6.25;;;;;;;20.24;91.54;98842.00;4450016;32;33757;-81
2022/09/15 00:50:55;;;;;;;9.90;6.80;;;;;;;19.61;97.31;98850.41;4451134;32;33246;-81
2022/09/15 00:53:24;;;;;;;9.43;7.05;;;;;;;19.43;98.57;98844.41;4451174;32;33791;-81
2022/09/15 00:55:52;;;;;;;9.45;5.82;;;;;;;19.42;99.34;98852.28;4451356;32;34272;-82
2022/09/15 00:58:37;;;;;;;8.63;6.85;;;;;;;19.64;97.01;98840.75;4451193;32;33370;-81
2022/09/15 01:01:06;;;;;;;12.05;7.32;;;;;;;19.61;97.43;98835.50;4450657;32;34764;-81
2022/09/15 01:03:35;;;;;;;9.90;6.93;;;;;;;19.89;95.30;98827.44;4451592;32;34097;-81
2022/09/15 01:06:09;;;;;;;11.40;7.12;;;;;;;20.16;94.15;98834.19;4448843;32;34447;-81
2022/09/15 01:08:45;;;;;;;7.93;5.85;;;;;;;20.46;92.50;98832.16;4449306;32;32514;-81
2022/09/15 01:11:15;;;;;;;8.02;6.37;;;;;;;21.26;85.48;98831.19;4448504;32;33570;-81
2022/09/15 01:13:43;;;;;;;9.68;5.97;;;;;;;21.63;83.34;98825.41;4450484;32;34841;-81
2022/09/15 01:16:26;;;;;;;8.13;6.05;;;;;;;21.18;84.12;98817.28;4450064;32;34058;-81
2022/09/15 01:19:21;;;;;;;8.10;5.78;;;;;;;21.27;84.23;98817.16;4451130;32;34556;-80
2022/09/15 01:22:13;;;;;;;9.10;5.87;;;;;;;20.96;85.50;98816.69;4450774;32;34525;-81
2022/09/15 01:24:51;;;;;;;8.32;5.95;;;;;;;21.04;86.05;98824.50;4450761;32;34284;-81
2022/09/15 01:27:28;;;;;;;11.55;5.82;;;;;;;21.41;83.30;98823.06;4451422;32;33662;-81
2022/09/15 01:30:30;;;;;;;8.38;5.70;;;;;;;21.65;82.07;98823.62;4451153;32;33940;-81
2022/09/15 01:33:14;;;;;;;9.48;5.62;;;;;;;22.40;78.10;98808.28;4448983;32;33635;-81
2022/09/15 01:35:58;;;;;;;9.27;5.20;;;;;;;22.43;77.96;98817.94;4450529;32;34762;-81
2022/09/15 01:38:41;;;;;;;7.25;5.47;;;;;;;22.27;78.00;98822.59;4451045;32;33262;-80
2022/09/15 01:41:31;;;;;;;8.65;5.12;;;;;;;22.44;77.37;98830.22;4450748;32;34951;-82
2022/09/15 01:44:05;;;;;;;7.62;4.82;;;;;;;22.12;78.57;98819.34;4448933;32;33924;-81
2022/09/15 01:46:36;;;;;;;8.57;4.97;;;;;;;22.36;77.74;98818.03;4452408;32;34915;-82
2022/09/15 01:49:06;;;;;;;6.40;4.65;;;;;;;22.09;78.79;98834.34;4449144;32;33248;-80
2022/09/15 01:51:35;;;;;;;8.18;4.93;;;;;;;21.77;79.96;98836.63;4438598;32;33123;-80
2022/09/15 01:54:04;;;;;;;9.02;5.00;;;;;;;20.61;87.21;98829.41;4452586;32;33466;-80
2022/09/15 01:56:32;;;;;;;10.73;5.80;;;;;;;20.47;88.94;98828.63;4452512;32;34283;-81
2022/09/15 01:58:59;;;;;;;9.07;5.25;;;;;;;20.54;88.55;98825.06;4453242;32;33763;-81
2022/09/15 02:01:31;;;;;;;7.35;5.50;;;;;;;20.80;88.08;98831.78;4453755;32;34842;-81
2022/09/15 02:04:05;;;;;;;9.68;5.47;;;;;;;21.35;83.67;98832.84;4452607;32;34482;-81
2022/09/15 02:06:39;;;;;;;6.25;4.62;;;;;;;21.29;83.74;98827.66;4453421;32;33902;-80
2022/09/15 02:09:12;;;;;;;7.00;4.45;;;;;;;21.99;79.38;98823.06;4451924;32;33805;-81
2022/09/15 02:11:51;;;;;;;6.12;4.50;;;;;;;21.82;80.16;98819.84;4452282;32;33912;-80
2022/09/15 02:14:35;;;;;;;6.22;4.30;;;;;;;22.07;78.56;98826.44;4451687;32;33956;-81
2022/09/15 02:17:04;;;;;;;9.65;4.50;;;;;;;22.12;78.44;98824.59;4450212;32;34617;-79
2022/09/15 02:19:35;;;;;;;9.82;4.47;;;;;;;22.13;78.49;98831.59;4452334;32;33394;-81
2022/09/15 02:22:16;;;;;;;5.87;4.10;;;;;;;22.10;78.75;98826.41;4465173;32;34054;-81
2022/09/15 02:24:48;;;;;;;8.35;4.00;;;;;;;22.07;78.40;98820.31;4438651;32;34719;-81
2022/09/15 02:27:22;;;;;;;4.45;3.33;;;;;;;20.65;85.76;98821.44;4453985;32;34064;-80
2022/09/15 02:29:54;;;;;;;7.28;4.20;;;;;;;21.00;84.99;98827.16;4452366;32;33259;-80
2022/09/15 02:32:22;;;;;;;6.28;3.50;;;;;;;20.58;86.33;98839.91;4452136;32;33794;-80
2022/09/15 02:34:50;;;;;;;5.95;3.10;;;;;;;21.51;81.63;98838.78;4452232;32;33932;-80
2022/09/15 02:37:20;;;;;;;8.25;3.40;;;;;;;21.73;79.92;98832.31;4453446;32;33831;-81
2022/09/15 02:39:54;;;;;;;4.70;3.10;;;;;;;21.69;79.92;98825.34;4452089;32;33376;-80
2022/09/15 02:42:27;;;;;;;7.57;3.40;;;;;;;21.60;80.25;98826.34;4451893;32;33950;-80
2022/09/15 02:44:55;;;;;;;5.15;3.30;;;;;;;21.76;79.50;98824.31;4453309;32;33881;-80
2022/09/15 02:47:23;;;;;;;4.50;3.10;;;;;;;21.21;81.46;98827.78;4451826;32;34225;-81
2022/09/15 02:49:50;;;;;;;5.15;3.12;;;;;;;20.53;85.95;98818.06;4454110;32;33554;-81
2022/09/15 02:52:18;;;;;;;6.65;2.97;;;;;;;21.05;83.91;98826.22;4453460;32;33441;-81
2022/09/15 02:54:46;;;;;;;5.72;3.03;;;;;;;20.97;83.38;98823.69;4452950;32;33637;-80
2022/09/15 02:57:13;;;;;;;5.85;2.95;;;;;;;20.19;87.67;98818.41;4452873;32;34035;-80
2022/09/15 03:02:27;;;;;;;4.68;3.10;;;;;;;20.20;88.67;98829.78;4453627;32;33896;-81
2022/09/15 03:04:55;;;;;;;5.43;3.10;;;;;;;19.98;90.69;98829.13;4453900;32;34527;-80
2022/09/15 03:07:23;;;;;;;6.85;2.97;;;;;;;20.22;88.97;98836.78;4453183;32;34137;-80
2022/09/15 03:09:51;;;;;;;4.70;2.80;;;;;;;20.20;89.57;98835.94;4450800;32;31999;-80
2022/09/15 03:12:18;;;;;;;6.55;3.03;;;;;;;20.21;90.16;98832.41;4452830;32;33703;-80
2022/09/15 03:14:46;;;;;;;5.85;3.17;;;;;;;20.08;89.95;98836.03;4441481;32;34063;-81
2022/09/15 03:17:13;;;;;;;7.50;2.95;;;;;;;20.09;89.45;98837.78;4453196;32;34245;-81
2022/09/15 03:19:41;;;;;;;7.32;3.00;;;;;;;19.96;90.32;98837.03;4452592;32;33654;-81
2022/09/15 03:22:09;;;;;;;3.90;2.60;;;;;;;19.80;91.38;98843.31;4452515;32;33889;-81
2022/09/15 03:24:37;;;;;;;5.70;2.95;;;;;;;20.01;89.89;98839.59;4452479;32;34535;-80
2022/09/15 03:27:04;;;;;;;4.30;2.50;;;;;;;20.06;89.99;98836.94;4452165;32;33673;-80
2022/09/15 03:29:31;;;;;;;5.50;2.50;;;;;;;20.80;85.21;98835.31;4446126;32;33535;-80
2022/09/15 03:31:59;;;;;;;5.15;2.42;;;;;;;21.10;83.11;98833.19;4452251;32;33836;-80
2022/09/15 03:34:26;;;;;;;6.10;2.70;;;;;;;21.30;81.69;98837.28;4452062;32;33726;-81
2022/09/15 03:36:54;;;;;;;9.05;2.90;;;;;;;21.36;81.29;98837.19;4452701;32;33978;-81
2022/09/15 03:39:22;;;;;;;5.55;2.60;;;;;;;21.68;79.64;98828.00;4452290;32;33646;-80
2022/09/15 03:41:49;;;;;;;4.72;2.50;;;;;;;21.63;79.66;98829.81;4444563;32;33812;-81
2022/09/15 03:44:16;;;;;;;5.40;2.42;;;;;;;21.61;79.40;98816.66;4449081;32;33723;-81
2022/09/15 03:46:44;;;;;;;4.12;2.40;;;;;;;21.66;78.96;98824.50;4453022;32;32806;-81
2022/09/15 03:49:12;;;;;;;5.22;2.95;;;;;;;21.89;77.62;98822.38;4452614;32;33623;-81
2022/09/15 03:51:40;;;;;;;5.18;3.00;;;;;;;21.53;79.19;98844.91;4452062;32;34102;-81
2022/09/15 03:54:08;;;;;;;4.95;2.70;;;;;;;20.78;83.58;98844.09;4452415;32;33509;-82
2022/09/15 03:56:35;;;;;;;7.12;2.70;;;;;;;21.48;79.82;98846.72;4453209;32;33675;-81
2022/09/15 03:59:04;;;;;;;6.53;2.28;;;;;;;20.61;85.07;98845.19;4452514;32;33664;-81
2022/09/15 04:01:32;;;;;;;5.72;2.35;;;;;;;21.09;82.17;98849.00;4461711;32;34216;-81
2022/09/15 04:04:00;;;;;;;4.93;2.75;;;;;;;21.01;81.07;98860.50;4452263;32;33738;-81
2022/09/15 04:06:28;;;;;;;5.15;2.45;;;;;;;21.30;79.61;98853.97;4451850;32;33327;-81
2022/09/15 04:08:58;;;;;;;5.00;2.60;;;;;;;21.10;81.36;98856.00;4452029;32;33475;-81
2022/09/15 04:11:26;;;;;;;5.10;2.70;;;;;;;20.79;82.35;98856.38;4453102;32;33584;-81
2022/09/15 04:13:54;;;;;;;5.68;2.40;;;;;;;20.47;85.32;98849.69;4448972;32;80419;-81
2022/09/15 04:16:23;;;;;;;3.80;2.60;;;;;;;20.47;84.46;98839.16;4453042;32;34722;-80
2022/09/15 04:18:54;;;;;;;4.90;2.50;;;;;;;20.73;83.41;98856.47;4451373;32;33568;-81
2022/09/15 04:21:23;;;;;;;3.75;2.53;;;;;;;20.60;84.02;98848.69;4452604;32;33891;-80
2022/09/15 04:23:52;;;;;;;4.80;2.55;;;;;;;20.59;84.85;98849.59;4453150;32;33979;-80
2022/09/15 04:26:31;;;;;;;6.28;3.15;;;;;;;20.55;84.70;98850.50;4451063;32;34120;-80
2022/09/15 04:29:00;;;;;;;4.62;2.80;;;;;;;20.79;83.72;98861.66;4451810;32;33188;-80
2022/09/15 04:31:32;;;;;;;5.43;3.22;;;;;;;21.44;79.49;98866.09;4450957;32;33860;-80
2022/09/15 04:34:00;;;;;;;4.20;2.22;;;;;;;22.02;76.48;98877.50;4451564;32;33636;-81
2022/09/15 04:36:28;;;;;;;5.40;2.35;;;;;;;22.14;75.37;98887.87;4451774;32;35511;-81
2022/09/15 04:38:56;;;;;;;5.53;3.08;;;;;;;20.53;82.91;98891.72;4451677;32;33254;-81
2022/09/15 04:41:25;;;;;;;4.55;2.50;;;;;;;20.38;85.11;98887.47;4451045;32;33808;-80
2022/09/15 04:43:52;;;;;;;4.50;2.47;;;;;;;20.43;84.91;98882.16;4450914;32;33671;-81
2022/09/15 04:46:20;;;;;;;6.60;2.75;;;;;;;19.51;91.46;98885.47;4452185;32;34685;-81
2022/09/15 04:48:48;;;;;;;6.07;2.80;;;;;;;19.75;90.96;98880.09;4451780;32;34343;-81
2022/09/15 04:51:20;;;;;;;10.00;3.78;;;;;;;19.73;90.70;98866.13;4452057;32;33910;-81
2022/09/15 04:53:48;;;;;;;4.97;2.90;;;;;;;19.55;93.18;98866.22;4449171;32;33948;-81
2022/09/15 04:56:21;;;;;;;5.25;3.53;;;;;;;19.56;93.59;98853.06;4451139;32;34391;-81
2022/09/15 04:58:50;;;;;;;7.50;3.58;;;;;;;19.60;93.95;98844.25;4449911;32;33771;-81
2022/09/15 05:01:24;;;;;;;11.23;3.70;;;;;;;19.79;93.05;98847.66;4452201;32;33662;-80
2022/09/15 05:03:52;;;;;;;9.32;3.78;;;;;;;19.87;92.88;98857.25;4451072;32;33649;-81
2022/09/15 05:06:25;;;;;;;7.60;3.40;;;;;;;19.99;92.30;98862.41;4448631;32;34121;-81
2022/09/15 05:08:56;;;;;;;5.87;3.30;;;;;;;20.21;90.49;98868.38;4450853;32;33186;-81
2022/09/15 05:11:24;;;;;;;6.70;3.67;;;;;;;20.00;92.32;98874.69;4451928;32;33325;-81
2022/09/15 05:13:52;;;;;;;7.53;3.78;;;;;;;20.07;92.06;98875.47;4450805;32;34061;-81
2022/09/15 05:16:22;;;;;;;6.82;3.28;;;;;;;20.28;90.13;98884.94;4449839;32;34849;-81
2022/09/15 05:18:52;;;;;;;7.05;3.58;;;;;;;20.53;89.36;98897.00;4449720;32;32783;-81
2022/09/15 05:21:21;;;;;;;8.15;3.30;;;;;;;20.00;92.94;98900.97;4450375;32;33666;-81
2022/09/15 05:23:52;;;;;;;6.43;3.75;;;;;;;20.21;91.90;98911.28;4451268;32;35773;-81
2022/09/15 05:26:25;;;;;;;8.27;4.05;;;;;;;20.20;92.14;98919.19;4448618;32;34170;-81
2022/09/15 05:28:54;;;;;;;10.13;4.07;;;;;;;20.43;90.72;98911.09;4452407;32;34009;-81
2022/09/15 05:31:29;;;;;;;9.60;3.75;;;;;;;20.27;92.05;98913.00;4450446;32;34001;-80
2022/09/15 05:33:59;;;;;;;10.27;3.65;;;;;;;20.41;91.40;98915.50;4446336;32;33771;-81
2022/09/15 05:36:28;;;;;;;8.68;4.25;;;;;;;20.67;89.56;98924.94;4450366;32;33626;-81
2022/09/15 05:38:56;;;;;;;9.90;3.87;;;;;;;20.39;91.49;98931.28;4451578;32;34185;-80
2022/09/15 05:41:25;;;;;;;8.43;3.83;;;;;;;20.57;90.66;98925.00;4438576;32;33493;-80
2022/09/15 05:43:55;;;;;;;10.20;3.80;;;;;;;20.43;91.10;98916.34;4450663;32;34415;-81
2022/09/15 05:46:27;;;;;;;8.30;3.55;;;;;;;21.05;87.58;98926.28;4426942;32;33150;-81
2022/09/15 05:48:57;;;;;;;8.70;3.78;;;;;;;20.70;89.29;98933.66;4452408;32;33728;-81
2022/09/15 05:51:24;;;;;;;6.82;3.60;;;;;;;21.15;86.44;98922.62;4442660;32;34378;-81
2022/09/15 05:53:52;;;;;;;7.95;3.80;;;;;;;21.84;82.82;98919.09;4444739;32;33821;-79
2022/09/15 05:56:20;;;;;;;5.53;3.58;;;;;;;21.93;81.41;98913.69;4439737;32;34173;-80
2022/09/15 05:58:51;;;;;;;10.00;3.25;;;;;;;22.16;80.68;98909.81;4424833;32;33445;-79
2022/09/15 06:01:24;;;;;;;8.68;3.53;;;;;;;21.88;80.57;98914.66;4449823;32;32859;-79
2022/09/15 06:03:53;;;;;;;7.03;3.42;;;;;;;21.93;81.63;98912.84;4438076;32;32200;-79
2022/09/15 06:06:21;;;;;;;5.95;3.30;;;;;;;22.42;79.04;98912.03;4453163;32;34165;-78
2022/09/15 06:08:54;;;;;;;8.32;3.67;;;;;;;22.14;80.36;98925.66;4449714;32;33582;-79
2022/09/15 06:11:28;;;;;;;8.50;3.33;;;;;;;21.87;81.41;98934.87;4450942;32;33235;-78
2022/09/15 06:14:01;;;;;;;7.50;3.42;;;;;;;22.17;80.36;98928.28;4450356;32;35884;-79
2022/09/15 06:16:33;;;;;;;9.10;4.00;;;;;;;22.50;78.95;98925.09;4438477;32;34836;-79
2022/09/15 06:19:02;;;;;;;9.35;3.15;;;;;;;22.94;76.96;98931.31;4446526;32;33517;-79
2022/09/15 06:21:31;;;;;;;8.20;3.55;;;;;;;22.62;78.28;98929.28;4439825;32;34573;-79
2022/09/15 06:24:02;;;;;;;7.22;3.15;;;;;;;22.37;79.11;98927.09;4441860;32;34761;-80
2022/09/15 06:26:30;;;;;;;7.18;3.30;;;;;;;22.87;76.96;98930.59;4440864;32;34675;-80
2022/09/15 06:29:02;;;;;;;6.45;3.20;;;;;;;23.16;75.52;98953.81;4456612;32;33527;-79
2022/09/15 06:31:31;;;;;;;8.85;3.60;;;;;;;23.01;76.48;98958.50;4454050;32;32521;-81
2022/09/15 06:33:59;;;;;;;6.87;3.22;;;;;;;22.85;76.89;98950.88;4445419;32;34850;-78
2022/09/15 06:36:39;;;;;;;5.62;3.20;;;;;;;23.35;75.01;98942.84;4442910;32;34190;-78
2022/09/15 06:39:07;;;;;;;6.10;3.08;;;;;;;23.38;74.17;98953.38;4439128;32;34286;-77
2022/09/15 06:41:35;;;;;;;7.85;3.12;;;;;;;22.86;76.36;98952.59;4458474;32;33171;-79
2022/09/15 06:44:25;;;;;;;5.65;2.80;;;;;;;22.28;79.47;98957.13;4451364;32;34501;-79
2022/09/15 06:46:52;;;;;;;10.73;3.40;;;;;;;22.14;81.25;98962.59;4454631;32;33771;-80
2022/09/15 06:49:20;;;;;;;9.18;3.25;;;;;;;21.87;83.04;98955.13;4451665;32;33792;-80
2022/09/15 06:51:48;;;;;;;9.90;3.85;;;;;;;21.68;84.32;98949.22;4454144;32;34645;-81
2022/09/15 06:54:16;;;;;;;7.40;3.78;;;;;;;21.84;84.41;98958.66;4451518;32;33730;-79
2022/09/15 06:56:44;;;;;;;10.40;3.83;;;;;;;21.78;84.54;98962.25;4451969;32;33080;-80
2022/09/15 06:59:14;;;;;;;12.93;3.50;;;;;;;21.40;86.99;98953.06;4439091;32;32863;-79
2022/09/15 07:01:42;;;;;;;9.07;3.72;;;;;;;21.83;85.08;98953.38;4440464;32;33682;-79
2022/09/15 07:04:10;;;;;;;7.47;3.65;;;;;;;21.97;84.85;98965.47;4438578;32;33849;-80
2022/09/15 07:06:38;;;;;;;6.82;3.42;;;;;;;21.97;85.98;98967.25;4437463;32;34085;-80
2022/09/15 07:09:06;;;;;;;8.27;3.53;;;;;;;21.72;86.94;98967.59;4451671;32;33546;-80
2022/09/15 07:11:34;;;;;;;6.12;3.30;;;;;;;21.98;86.72;98974.25;4452892;32;34565;-81
2022/09/15 07:14:01;;;;;;;5.50;3.58;;;;;;;22.10;85.91;98978.50;4439261;32;33901;-81
2022/09/15 07:16:29;;;;;;;8.70;3.62;;;;;;;21.69;87.55;98975.56;4451915;32;34463;-81
2022/09/15 07:19:00;;;;;;;8.48;3.90;;;;;;;22.35;85.26;98979.03;4438656;32;33431;-81
2022/09/15 07:21:28;;;;;;;4.68;2.85;;;;;;;23.49;80.25;98976.94;4452050;32;35355;-80
2022/09/15 07:23:56;;;;;;;6.93;3.03;;;;;;;23.40;78.40;98969.22;4439305;32;33379;-81
2022/09/15 07:26:26;;;;;;;7.87;3.40;;;;;;;23.51;78.18;98976.00;4449723;32;34107;-81
2022/09/15 07:28:59;;;;;;;5.20;2.90;;;;;;;23.14;79.03;98981.16;4438841;32;32887;-78
2022/09/15 07:31:30;;;;;;;6.07;2.70;;;;;;;22.07;83.46;98992.59;4452777;32;33952;-78
2022/09/15 07:33:58;;;;;;;5.80;2.67;;;;;;;21.66;85.16;98996.69;4438127;32;32361;-76
2022/09/15 07:36:27;;;;;;;6.35;2.87;;;;;;;22.10;83.76;98989.91;4436814;32;34289;-80
2022/09/15 07:38:54;;;;;;;4.57;2.60;;;;;;;21.70;85.52;98989.63;4437937;32;33360;-80
2022/09/15 07:41:24;;;;;;;7.87;3.35;;;;;;;22.41;82.61;98994.75;4436212;32;33595;-80
2022/09/15 07:43:53;;;;;;;8.73;2.50;;;;;;;22.45;81.58;98983.25;4449750;32;33922;-79
2022/09/15 07:46:22;;;;;;;7.15;2.55;;;;;;;22.10;81.96;98979.37;4435830;32;34539;-80
2022/09/15 07:48:52;;;;;;;5.70;2.40;;;;;;;23.04;79.08;98990.16;4449086;32;33335;-79
2022/09/15 07:51:20;;;;;;;7.15;2.40;;;;;;;23.86;74.37;98986.75;4436373;32;32993;-79
2022/09/15 07:53:47;;;;;;;7.45;2.40;;;;;;;23.38;75.84;98985.09;4458017;32;34617;-80
2022/09/15 07:56:17;;;;;;;4.45;2.30;;;;;;;22.25;79.68;98985.31;4439383;32;34195;-80
2022/09/15 07:58:45;;;;;;;5.87;2.10;;;;;;;23.08;75.66;98989.19;4451914;32;33284;-79
2022/09/15 08:01:13;;;;;;;5.97;2.35;;;;;;;23.73;72.96;98992.25;4454114;32;34317;-79
2022/09/15 08:03:43;;;;;;;4.47;2.03;;;;;;;22.76;77.11;99006.47;4452614;32;33955;-80
2022/09/15 08:06:11;;;;;;;5.12;2.30;;;;;;;23.38;74.48;98978.94;4453563;32;33400;-79
2022/09/15 08:08:39;;;;;;;5.78;2.67;;;;;;;23.38;74.42;98990.38;4452413;32;34396;-79
2022/09/15 08:11:09;;;;;;;3.28;1.80;;;;;;;24.56;70.28;98986.03;4440388;32;33824;-79
2022/09/15 08:13:41;;;;;;;4.82;1.98;;;;;;;23.49;71.50;98993.66;4460097;32;34213;-79
2022/09/15 08:16:14;;;;;;;3.60;1.60;;;;;;;23.18;72.97;98988.13;4463660;32;34850;-78
2022/09/15 08:18:42;;;;;;;4.65;1.50;;;;;;;23.59;71.34;98993.50;4462234;32;34129;-80
2022/09/15 08:21:12;;;;;;;5.35;2.05;;;;;;;23.77;71.38;99003.66;4455519;32;33825;-80
2022/09/15 08:23:40;;;;;;;7.97;1.60;;;;;;;24.09;69.70;98989.75;4428708;32;33644;-81
2022/09/15 08:26:09;;;;;;;3.60;1.52;;;;;;;24.30;68.51;98985.72;4443882;32;34895;-80
2022/09/15 08:28:41;;;;;;;4.90;2.00;;;;;;;24.02;68.49;98992.56;4458361;32;33057;-81
2022/09/15 08:31:10;;;;;;;5.57;1.40;;;;;;;23.78;69.23;98988.66;4462239;32;33769;-81
2022/09/15 08:33:38;;;;;;;4.53;1.62;;;;;;;24.08;67.36;98988.00;4450277;32;33529;-81
2022/09/15 08:36:12;;;;;;;4.37;1.70;;;;;;;23.94;67.93;98974.22;4447817;32;33966;-80
2022/09/15 08:38:43;;;;;;;3.87;1.30;;;;;;;24.52;65.40;98977.28;4437156;32;33451;-80
2022/09/15 08:41:18;;;;;;;5.75;1.50;;;;;;;24.66;64.33;98966.31;4447686;32;33013;-79
2022/09/15 08:43:52;;;;;;;5.97;1.40;;;;;;;24.31;65.00;98971.56;4448614;32;34545;-80
2022/09/15 08:46:25;;;;;;;2.33;1.20;;;;;;;23.94;66.37;98968.94;4438190;32;34221;-79
2022/09/15 08:49:02;;;;;;;3.80;1.08;;;;;;;23.96;66.55;98964.47;4435545;32;33006;-80
2022/09/15 08:51:36;;;;;;;2.22;1.00;;;;;;;23.68;65.57;98962.44;4451105;32;34607;-81
2022/09/15 08:54:07;;;;;;;4.30;1.25;;;;;;;24.06;63.11;98958.06;4453939;32;34485;-80
2022/09/15 08:56:35;;;;;;;4.53;1.20;;;;;;;24.51;62.78;98955.25;4449822;32;36694;-81
2022/09/15 08:59:03;;;;;;;2.60;0.90;;;;;;;24.28;62.50;98944.31;4453077;32;34395;-81
2022/09/15 09:01:42;;;;;;;3.20;1.08;;;;;;;24.70;60.34;98941.50;4437392;32;33400;-83
2022/09/15 09:04:38;;;;;;;3.42;0.90;;;;;;;24.41;60.50;98942.22;4440439;32;34060;-81
2022/09/15 09:07:41;;;;;;;2.00;0.70;;;;;;;24.32;58.52;98943.34;4439862;32;34915;-81
2022/09/15 09:10:23;;;;;;;3.65;0.98;;;;;;;24.38;58.22;98942.28;4422938;32;33660;-81
2022/09/15 09:13:28;;;;;;;2.00;0.90;;;;;;;24.69;57.10;98931.84;4452497;32;34642;-81
2022/09/15 09:16:22;;;;;;;3.15;0.90;;;;;;;25.51;54.48;98930.41;4452128;32;34593;-82
2022/09/15 09:19:09;;;;;;;2.83;0.90;;;;;;;25.18;56.26;98919.88;4438762;32;34957;-78
2022/09/15 09:21:40;;;;;;;1.92;1.02;;;;;;;25.62;55.61;98919.50;4454131;32;33750;-81
2022/09/15 09:24:17;;;;;;;2.95;0.75;;;;;;;25.62;54.65;98920.34;4438797;32;33840;-83
2022/09/15 09:26:48;;;;;;;2.25;0.90;;;;;;;25.89;54.51;98921.28;4436768;32;33760;-79
2022/09/15 09:29:18;;;;;;;4.30;1.10;;;;;;;25.73;54.83;98921.81;4445592;32;34163;-79
2022/09/15 09:31:48;;;;;;;2.47;0.73;;;;;;;26.01;53.41;98922.69;4451180;32;33664;-78
2022/09/15 09:34:15;;;;;;;3.47;0.90;;;;;;;26.31;51.24;98919.97;4452250;32;34447;-78
2022/09/15 09:36:42;;;;;;;2.65;0.60;;;;;;;26.49;51.11;98914.03;4453761;32;32399;-79
2022/09/15 09:39:12;;;;;;;3.45;0.88;;;;;;;26.94;50.59;98909.81;4439833;32;34705;-79
2022/09/15 09:41:40;;;;;;;2.35;0.65;;;;;;;27.13;49.50;98915.34;4453850;32;34281;-78
2022/09/15 09:44:13;;;;;;;2.87;0.80;;;;;;;27.15;49.41;98907.31;4439156;32;33452;-78
2022/09/15 09:46:41;;;;;;;5.20;0.90;;;;;;;27.06;49.30;98903.19;4423761;32;33794;-79
2022/09/15 09:49:26;;;;;;;2.12;0.82;;;;;;;28.09;49.05;98901.91;4449229;32;34131;-80
2022/09/15 09:52:00;;;;;;;4.22;1.00;;;;;;;27.25;48.49;98892.75;4436669;32;33494;-79
2022/09/15 09:54:30;;;;;;;4.68;1.00;;;;;;;26.91;48.51;98885.16;4453695;32;33671;-79
2022/09/15 09:57:12;;;;;;;2.65;0.75;;;;;;;26.40;49.92;98887.78;4435264;32;33392;-79
2022/09/15 09:59:42;;;;;;;6.07;0.85;;;;;;;26.90;49.78;98891.41;4448942;32;34020;-80
2022/09/15 10:02:10;;;;;;;3.12;0.73;;;;;;;26.64;49.55;98879.94;4448518;32;33813;-79
2022/09/15 10:04:49;;;;;;;1.65;0.70;;;;;;;26.79;48.39;98868.75;4450087;32;34349;-79
2022/09/15 10:07:20;;;;;;;2.28;0.90;;;;;;;26.72;49.27;98861.91;4437821;32;34414;-79
2022/09/15 10:09:51;;;;;;;3.78;0.80;;;;;;;26.54;48.60;98854.56;4435620;32;34471;-79
2022/09/15 10:12:22;;;;;;;1.58;0.85;;;;;;;27.22;48.44;98848.53;4452321;32;32328;-79
2022/09/15 10:14:53;;;;;;;2.75;0.70;;;;;;;27.01;48.06;98850.22;4455213;32;32263;-77
2022/09/15 10:17:24;;;;;;;5.37;0.98;;;;;;;26.59;48.86;98844.69;4458804;32;33658;-78
2022/09/15 10:19:53;;;;;;;2.75;0.80;;;;;;;26.43;48.66;98837.22;4437056;32;34338;-81
2022/09/15 10:22:30;;;;;;;3.30;0.85;;;;;;;26.47;49.10;98830.88;4437336;32;34310;-80
2022/09/15 10:24:59;;;;;;;3.33;1.00;;;;;;;27.19;48.42;98818.53;4451795;32;33631;-79
2022/09/15 10:27:31;;;;;;;3.83;0.85;;;;;;;27.48;46.87;98814.75;4437454;32;33837;-81
2022/09/15 10:30:16;;;;;;;4.25;1.00;;;;;;;27.77;46.43;98810.03;4460468;32;34548;-79
2022/09/15 10:32:44;;;;;;;2.90;0.90;;;;;;;27.85;46.55;98800.81;4448309;32;33247;-78
2022/09/15 10:35:14;;;;;;;4.62;1.20;;;;;;;28.00;47.01;98806.47;4453207;32;33470;-79
2022/09/15 10:38:05;;;;;;;3.08;0.90;;;;;;;28.08;47.17;98808.78;4449606;32;34356;-80
2022/09/15 10:40:53;;;;;;;4.18;1.37;;;;;;;27.79;47.58;98809.03;4453433;32;33708;-79
2022/09/15 10:43:32;;;;;;;4.65;1.00;;;;;;;27.34;47.92;98817.13;4453843;32;33452;-79
2022/09/15 10:46:32;;;;;;;3.17;1.10;;;;;;;26.95;48.56;98810.59;4452108;32;33226;-79
2022/09/15 10:49:20;;;;;;;5.05;1.10;;;;;;;27.06;48.55;98812.81;4435771;32;33381;-80
2022/09/15 10:52:06;;;;;;;3.30;1.02;;;;;;;27.02;48.68;98812.09;4447892;32;33964;-80
2022/09/15 10:54:39;;;;;;;3.08;1.00;;;;;;;27.11;47.75;98821.50;4449719;32;33659;-81
2022/09/15 10:57:18;;;;;;;4.40;1.20;;;;;;;27.50;47.86;98826.19;4452412;32;31573;-79
2022/09/15 11:00:08;;;;;;;2.50;1.17;;;;;;;27.22;48.51;98824.59;4442051;32;34460;-78
2022/09/15 11:03:25;;;;;;;3.33;0.85;;;;;;;26.99;49.11;98827.28;4441993;32;34831;-80
2022/09/15 11:05:58;;;;;;;;;;;;;;;26.87;49.58;98824.16;4441184;32;33623;-80
2022/09/15 11:08:43;;;;;;;4.40;1.40;;;;;;;26.84;49.48;98816.28;4451773;32;33475;-78
2022/09/15 11:11:19;;;;;;;;;;;;;;;26.80;51.74;98816.47;4457537;32;33945;-81
2022/09/15 11:14:21;;;;;;;5.55;1.48;;;;;;;26.55;55.28;98813.81;4454154;32;34329;-79
2022/09/15 11:17:13;;;;;;;9.10;2.10;;;;;;;26.86;56.28;98821.56;4438792;32;33677;-78
2022/09/15 11:19:57;;;;;;;6.32;1.98;;;;;;;26.24;58.59;98812.25;4455733;32;32555;-77
2022/09/15 11:22:37;;;;;;;7.07;2.45;;;;;;;26.19;59.54;98819.50;4452128;32;34239;-79
2022/09/15 11:25:19;;;;;;;7.30;2.00;;;;;;;26.24;59.78;98822.88;4431282;32;33203;-78
2022/09/15 11:27:59;;;;;;;4.32;1.92;;;;;;;26.25;59.96;98817.50;4441063;32;33393;-79
2022/09/15 11:30:48;;;;;;;9.07;2.28;;;;;;;25.86;60.71;98823.22;4454030;32;33807;-79
2022/09/15 11:33:31;;;;;;;6.75;2.00;;;;;;;25.89;60.76;98811.66;4448431;32;34830;-78
2022/09/15 11:36:07;;;;;;;9.80;2.00;;;;;;;26.09;59.96;98809.19;4440803;32;34112;-79
2022/09/15 11:38:37;;;;;;;7.95;2.00;;;;;;;25.83;61.11;98803.91;4441521;32;31924;-78
2022/09/15 11:41:10;;;;;;;4.62;2.00;;;;;;;25.70;61.36;98791.03;4437921;32;33168;-79
2022/09/15 11:43:47;;;;;;;5.85;2.12;;;;;;;25.90;61.12;98778.88;4457707;32;33979;-80
2022/09/15 11:46:25;;;;;;;5.50;1.95;;;;;;;26.00;60.97;98766.19;4441703;32;34598;-82
2022/09/15 11:49:00;;;;;;;7.05;1.85;;;;;;;25.95;61.17;98753.09;4443998;32;33160;-79
2022/09/15 11:51:34;;;;;;;7.30;2.00;;;;;;;25.76;61.94;98742.22;4438649;32;32158;-80
2022/09/15 11:54:09;;;;;;;6.15;1.98;;;;;;;26.36;60.24;98740.12;4448330;32;34045;-78
2022/09/15 11:56:41;;;;;;;9.15;2.47;;;;;;;26.46;60.16;98744.19;4458713;32;34582;-80
2022/09/15 11:59:37;;;;;;;7.82;2.08;;;;;;;26.35;60.68;98740.19;4442429;32;33068;-77
2022/09/15 12:02:44;;;;;;;5.97;2.15;;;;;;;26.59;60.04;98743.75;4446484;32;34317;-78